createdAt,value
2018-06-22T00:00:31.448Z,12.93
2018-06-22T00:05:26.050Z,11.50
2018-06-22T00:10:20.764Z,7.20
2018-06-22T00:15:15.576Z,13.33
2018-06-22T00:20:10.047Z,11.13
2018-06-22T00:25:04.968Z,6.40
2018-06-22T00:29:59.977Z,8.17
2018-06-22T00:34:54.580Z,7.23
2018-06-22T00:39:49.090Z,11.27
2018-06-22T00:44:43.737Z,11.23
2018-06-22T00:49:38.480Z,7.73
2018-06-22T00:54:32.670Z,9.27
2018-06-22T00:59:27.165Z,9.70
2018-06-22T01:04:21.717Z,5.20
2018-06-22T01:09:16.310Z,7.77
2018-06-22T01:14:10.829Z,9.43
2018-06-22T01:19:05.759Z,10.50
2018-06-22T01:24:00.595Z,9.80
2018-06-22T01:29:02.227Z,9.90
2018-06-22T01:33:56.893Z,11.63
2018-06-22T01:38:51.743Z,6.93
2018-06-22T01:43:46.161Z,8.03
2018-06-22T01:48:40.940Z,9.03
2018-06-22T01:53:35.658Z,7.07
2018-06-22T01:58:30.631Z,12.33
2018-06-22T02:03:26.072Z,6.97
2018-06-22T02:08:20.778Z,10.87
2018-06-22T02:13:15.532Z,8.07
2018-06-22T02:18:11.054Z,10.63
2018-06-22T02:23:06.270Z,8.63
2018-06-22T02:28:00.724Z,11.73
2018-06-22T02:32:55.339Z,8.67
2018-06-22T02:37:50.169Z,9.80
2018-06-22T02:42:44.736Z,9.97
2018-06-22T02:47:38.967Z,6.97
2018-06-22T02:52:34.012Z,11.03
2018-06-22T02:57:29.867Z,7.70
2018-06-22T03:02:24.446Z,10.53
2018-06-22T03:07:19.215Z,7.43
2018-06-22T03:12:13.595Z,9.13
2018-06-22T03:17:08.326Z,9.30
2018-06-22T03:22:03.122Z,9.87
2018-06-22T03:26:58.402Z,9.23
2018-06-22T03:31:53.284Z,5.63
2018-06-22T03:36:47.955Z,9.03
2018-06-22T03:41:42.454Z,6.20
2018-06-22T03:46:37.037Z,5.30
2018-06-22T03:51:31.692Z,14.33
2018-06-22T03:56:26.180Z,10.50
2018-06-22T04:01:22.309Z,6.67
2018-06-22T04:06:17.076Z,9.37
2018-06-22T04:11:11.894Z,6.60
2018-06-22T04:16:06.460Z,11.40
2018-06-22T04:21:01.636Z,6.97
2018-06-22T04:25:56.342Z,6.93
2018-06-22T04:30:50.812Z,5.93
2018-06-22T04:35:45.343Z,8.80
2018-06-22T04:40:39.812Z,9.93
2018-06-22T04:45:34.394Z,8.57
2018-06-22T04:50:29.212Z,6.67
2018-06-22T04:55:23.667Z,8.30
2018-06-22T05:00:18.129Z,10.07
2018-06-22T05:05:12.601Z,9.43
2018-06-22T05:10:07.070Z,5.43
2018-06-22T05:15:01.554Z,8.23
2018-06-22T05:19:56.051Z,8.70
2018-06-22T05:24:50.553Z,11.53
2018-06-22T05:29:44.973Z,7.43
2018-06-22T05:34:39.441Z,7.90
2018-06-22T05:39:33.964Z,7.87
2018-06-22T05:44:28.461Z,8.37
2018-06-22T05:49:22.949Z,6.93
2018-06-22T05:54:17.425Z,6.10
2018-06-22T05:59:11.774Z,9.20
2018-06-22T06:04:06.272Z,7.90
2018-06-22T06:09:00.946Z,5.57
2018-06-22T06:13:55.132Z,7.77
2018-06-22T06:18:51.752Z,4.60
2018-06-22T06:23:46.250Z,7.33
2018-06-22T06:28:40.954Z,13.27
2018-06-22T06:33:35.421Z,5.10
2018-06-22T06:38:29.653Z,11.47
2018-06-22T06:43:24.130Z,10.93
2018-06-22T06:48:18.856Z,8.30
2018-06-22T06:53:14.035Z,9.73
2018-06-22T06:58:08.539Z,8.23
2018-06-22T07:03:03.329Z,6.93
2018-06-22T07:07:57.810Z,9.60
2018-06-22T07:12:52.304Z,10.20
2018-06-22T07:17:46.800Z,12.20
2018-06-22T07:22:41.992Z,13.47
2018-06-22T07:27:36.456Z,9.27
2018-06-22T07:32:30.946Z,8.50
2018-06-22T07:37:25.397Z,9.00
2018-06-22T07:42:20.362Z,13.70
2018-06-22T07:47:15.481Z,11.87
2018-06-22T07:52:10.117Z,8.63
2018-06-22T07:57:04.923Z,13.30
2018-06-22T08:01:59.602Z,11.10
2018-06-22T08:06:54.260Z,13.27
2018-06-22T08:11:48.733Z,11.47
2018-06-22T08:16:43.347Z,9.03
2018-06-22T08:21:37.832Z,11.13
2018-06-22T08:26:32.490Z,13.80
2018-06-22T08:31:27.355Z,11.07
2018-06-22T08:36:21.862Z,8.90
2018-06-22T08:41:16.397Z,8.47
2018-06-22T08:46:10.886Z,9.10
2018-06-22T08:51:05.364Z,16.33
2018-06-22T08:55:59.671Z,11.23
2018-06-22T09:00:54.073Z,10.47
2018-06-22T09:05:48.349Z,8.13
2018-06-22T09:10:42.843Z,13.57
2018-06-22T09:15:37.303Z,9.77
2018-06-22T09:20:31.801Z,14.13
2018-06-22T09:25:26.437Z,13.60
2018-06-22T09:30:21.210Z,12.07
2018-06-22T09:35:15.411Z,12.30
2018-06-22T09:40:10.544Z,12.87
2018-06-22T09:45:05.229Z,8.00
2018-06-22T09:49:59.960Z,11.30
2018-06-22T09:54:54.487Z,8.43
2018-06-22T09:59:50.313Z,8.97
2018-06-22T10:04:44.885Z,14.53
2018-06-22T10:09:40.581Z,14.83
2018-06-22T10:14:35.902Z,16.17
2018-06-22T10:19:31.219Z,15.27
2018-06-22T10:24:26.226Z,10.47
2018-06-22T10:29:21.133Z,11.50
2018-06-22T10:34:16.306Z,14.03
2018-06-22T10:39:12.909Z,13.23
2018-06-22T10:44:08.531Z,14.13
2018-06-22T10:49:03.658Z,15.43
2018-06-22T10:53:58.645Z,8.90
2018-06-22T10:58:53.448Z,18.23
2018-06-22T11:03:48.070Z,13.10
2018-06-22T11:08:43.191Z,9.77
2018-06-22T11:13:37.923Z,9.67
2018-06-22T11:18:32.638Z,14.60
2018-06-22T11:23:27.783Z,10.40
2018-06-22T11:28:22.579Z,15.33
2018-06-22T11:33:21.022Z,10.40
2018-06-22T11:38:21.772Z,9.77
2018-06-22T11:43:22.775Z,9.53
2018-06-22T11:48:17.287Z,10.83
2018-06-22T11:53:12.459Z,18.97
2018-06-22T11:58:07.310Z,8.77
2018-06-22T12:03:01.562Z,9.30
2018-06-22T12:07:56.419Z,14.03
2018-06-22T12:12:52.114Z,14.17
2018-06-22T12:17:46.748Z,7.20
2018-06-22T12:22:42.084Z,11.17
2018-06-22T12:27:36.619Z,6.93
2018-06-22T12:32:31.126Z,6.53
2018-06-22T12:37:25.952Z,9.83
2018-06-22T12:42:20.480Z,9.67
2018-06-22T12:47:15.205Z,14.00
2018-06-22T12:52:09.822Z,8.10
2018-06-22T12:57:04.461Z,6.60
2018-06-22T13:01:58.668Z,10.33
2018-06-22T13:06:53.474Z,7.07
2018-06-22T13:11:49.167Z,10.13
2018-06-22T13:16:43.774Z,11.40
2018-06-22T13:21:54.537Z,9.27
2018-06-22T13:26:49.576Z,12.53
2018-06-22T13:31:44.861Z,7.30
2018-06-22T13:36:39.895Z,11.47
2018-06-22T13:41:37.007Z,7.27
2018-06-22T13:46:32.472Z,11.00
2018-06-22T13:51:30.274Z,7.83
2018-06-22T13:56:24.761Z,10.17
2018-06-22T14:01:19.559Z,10.67
2018-06-22T14:06:19.214Z,8.83
2018-06-22T14:11:13.664Z,7.83
2018-06-22T14:16:09.142Z,7.93
2018-06-22T14:21:03.935Z,6.93
2018-06-22T14:25:58.483Z,8.60
2018-06-22T14:30:53.059Z,8.30
2018-06-22T14:35:47.644Z,10.67
2018-06-22T14:40:41.835Z,10.17
2018-06-22T14:45:36.332Z,6.07
2018-06-22T14:50:30.830Z,7.07
2018-06-22T14:55:30.544Z,7.80
2018-06-22T15:00:30.140Z,9.13
2018-06-22T15:05:30.139Z,7.37
2018-06-22T15:10:25.305Z,4.43
2018-06-22T15:15:19.750Z,7.97
2018-06-22T15:20:14.395Z,5.77
2018-06-22T15:25:08.884Z,7.93
2018-06-22T15:30:04.031Z,5.60
2018-06-22T15:35:03.811Z,4.97
2018-06-22T15:40:03.584Z,5.37
2018-06-22T15:45:04.691Z,5.17
2018-06-22T15:50:04.729Z,4.00
2018-06-22T15:55:05.333Z,6.40
2018-06-22T15:59:59.992Z,8.47
2018-06-22T16:04:54.631Z,7.00
2018-06-22T16:09:54.499Z,8.20
2018-06-22T16:14:54.660Z,6.50
2018-06-22T16:19:54.511Z,6.90
2018-06-22T16:24:54.634Z,3.67
2018-06-22T16:29:49.414Z,5.13
2018-06-22T16:34:44.087Z,6.73
2018-06-22T16:39:39.147Z,5.80
2018-06-22T16:44:34.199Z,5.83
2018-06-22T16:49:29.377Z,4.47
2018-06-22T16:54:24.288Z,7.03
2018-06-22T16:59:18.981Z,4.53
2018-06-22T17:04:15.932Z,14.67
2018-06-22T17:09:16.014Z,5.73
2018-06-22T17:14:15.895Z,5.70
2018-06-22T17:19:13.221Z,7.67
2018-06-22T17:24:08.094Z,6.10
2018-06-22T17:29:02.566Z,6.03
2018-06-22T17:33:58.450Z,6.37
2018-06-22T17:38:53.034Z,6.73
2018-06-22T17:43:47.523Z,8.93
2018-06-22T17:48:42.127Z,8.90
2018-06-22T17:53:38.139Z,7.23
2018-06-22T17:58:32.812Z,7.77
2018-06-22T18:03:35.693Z,7.63
2018-06-22T18:08:36.135Z,7.33
2018-06-22T18:13:30.722Z,6.63
2018-06-22T18:18:25.947Z,5.67
2018-06-22T18:23:20.462Z,7.53
2018-06-22T18:28:15.094Z,8.73
2018-06-22T18:33:09.876Z,7.00
2018-06-22T18:38:04.324Z,9.47
2018-06-22T18:42:58.822Z,8.20
2018-06-22T18:47:53.458Z,7.70
2018-06-22T18:52:53.230Z,8.97
2018-06-22T18:57:53.642Z,7.53
2018-06-22T19:02:53.560Z,7.33
2018-06-22T19:07:48.198Z,5.73
2018-06-22T19:12:42.871Z,8.90
2018-06-22T19:17:37.418Z,7.57
2018-06-22T19:22:32.817Z,5.77
2018-06-22T19:27:29.164Z,8.30
2018-06-22T19:32:23.847Z,8.70
2018-06-22T19:37:18.644Z,6.20
2018-06-22T19:42:13.030Z,6.40
2018-06-22T19:47:12.707Z,4.70
2018-06-22T19:52:12.479Z,5.90
2018-06-22T19:57:07.373Z,7.80
2018-06-22T20:02:01.885Z,5.60
2018-06-22T20:06:56.557Z,7.07
2018-06-22T20:11:51.090Z,10.07
2018-06-22T20:16:45.556Z,6.53
2018-06-22T20:21:40.336Z,7.60
2018-06-22T20:26:34.844Z,9.17
2018-06-22T20:31:35.282Z,15.07
2018-06-22T20:36:35.326Z,10.87
2018-06-22T20:41:35.520Z,8.63
2018-06-22T20:46:36.258Z,10.07
2018-06-22T20:51:38.759Z,15.97
2018-06-22T20:56:34.149Z,12.57
2018-06-22T21:01:29.548Z,13.43
2018-06-22T21:06:25.944Z,12.77
2018-06-22T21:11:24.117Z,17.17
2018-06-22T21:16:19.301Z,19.97
2018-06-22T21:21:19.834Z,15.83
2018-06-22T21:26:14.987Z,16.83
2018-06-22T21:31:14.938Z,16.63
2018-06-22T21:36:14.910Z,17.90
2018-06-22T21:41:10.370Z,21.53
2018-06-22T21:46:06.391Z,12.33
2018-06-22T21:51:01.464Z,16.70
2018-06-22T21:55:55.960Z,19.87
2018-06-22T22:00:53.252Z,20.33
2018-06-22T22:05:49.569Z,17.73
2018-06-22T22:10:49.791Z,13.63
2018-06-22T22:15:45.134Z,15.57
2018-06-22T22:20:39.833Z,19.83
2018-06-22T22:25:38.512Z,19.33
2018-06-22T22:30:34.687Z,19.33
2018-06-22T22:35:30.904Z,12.13
2018-06-22T22:40:27.166Z,18.33
2018-06-22T22:45:22.028Z,17.57
2018-06-22T22:50:17.965Z,16.27
2018-06-22T22:55:13.358Z,18.80
2018-06-22T23:00:09.388Z,16.50
2018-06-22T23:05:04.912Z,16.23
2018-06-22T23:10:00.512Z,24.10
2018-06-22T23:14:55.789Z,14.50
2018-06-22T23:19:50.606Z,16.57
2018-06-22T23:24:46.162Z,20.87
2018-06-22T23:29:41.017Z,18.27
2018-06-22T23:34:35.928Z,17.13
2018-06-22T23:39:31.284Z,20.90
2018-06-22T23:44:27.676Z,18.37
2018-06-22T23:49:22.522Z,24.43
2018-06-22T23:54:17.690Z,21.13
2018-06-22T23:59:14.319Z,25.67
